createdAt,value
2023-05-01T00:00:54.871Z,6.13
2023-05-01T00:03:22.096Z,5.38
2023-05-01T00:05:49.369Z,5.93
2023-05-01T00:08:16.427Z,6.07
2023-05-01T00:10:43.588Z,6.05
2023-05-01T00:13:12.333Z,6.40
2023-05-01T00:15:42.453Z,5.65
2023-05-01T00:18:09.655Z,6.43
2023-05-01T00:20:36.802Z,5.68
2023-05-01T00:23:03.878Z,5.60
2023-05-01T00:25:31.430Z,6.85
2023-05-01T00:27:59.880Z,6.28
2023-05-01T00:30:27.828Z,5.97
2023-05-01T00:32:55.177Z,6.38
2023-05-01T00:35:22.659Z,6.18
2023-05-01T00:37:49.788Z,6.50
2023-05-01T00:40:16.951Z,6.10
2023-05-01T00:42:44.066Z,6.18
2023-05-01T00:45:11.458Z,6.43
2023-05-01T00:47:39.136Z,6.28
2023-05-01T00:50:07.894Z,6.70
2023-05-01T00:52:35.526Z,6.38
2023-05-01T00:55:02.673Z,6.47
2023-05-01T00:57:33.358Z,6.72
2023-05-01T01:00:00.433Z,6.13
2023-05-01T01:02:27.593Z,6.63
2023-05-01T01:04:55.009Z,6.32
2023-05-01T01:07:43.439Z,5.97
2023-05-01T01:10:58.045Z,6.55
2023-05-01T01:13:40.347Z,6.43
2023-05-01T01:16:30.148Z,5.38
2023-05-01T01:19:18.348Z,5.95
2023-05-01T01:21:49.826Z,5.65
2023-05-01T01:24:35.299Z,5.80
2023-05-01T01:27:32.471Z,6.93
2023-05-01T01:30:25.945Z,5.65
2023-05-01T01:33:33.023Z,5.60
2023-05-01T01:38:45.750Z,6.07
2023-05-01T01:41:21.474Z,5.60
2023-05-01T01:44:00.252Z,5.45
2023-05-01T01:46:28.053Z,6.00
2023-05-01T01:48:58.298Z,5.72
2023-05-01T01:51:26.992Z,5.72
2023-05-01T01:53:57.135Z,6.18
2023-05-01T01:56:29.460Z,6.03
2023-05-01T01:58:57.975Z,5.95
2023-05-01T02:01:25.724Z,6.25
2023-05-01T02:03:55.231Z,6.30
2023-05-01T02:06:25.374Z,6.70
2023-05-01T02:08:53.933Z,5.90
2023-05-01T02:11:24.351Z,5.50
2023-05-01T02:13:53.965Z,5.90
2023-05-01T02:16:25.362Z,6.03
2023-05-01T02:18:53.608Z,5.90
2023-05-01T02:21:21.454Z,5.00
2023-05-01T02:23:48.662Z,5.35
2023-05-01T02:26:18.291Z,5.13
2023-05-01T02:28:45.667Z,5.35
2023-05-01T02:31:12.862Z,5.38
2023-05-01T02:33:40.128Z,5.38
2023-05-01T02:36:07.234Z,5.93
2023-05-01T02:38:35.422Z,6.15
2023-05-01T02:41:03.724Z,5.70
2023-05-01T02:43:33.140Z,5.15
2023-05-01T02:46:04.628Z,5.95
2023-05-01T02:48:33.773Z,5.72
2023-05-01T02:51:02.115Z,5.68
2023-05-01T02:53:30.305Z,5.75
2023-05-01T02:55:57.577Z,5.50
2023-05-01T02:58:24.709Z,5.70
2023-05-01T03:00:54.462Z,5.93
2023-05-01T03:03:21.988Z,5.53
2023-05-01T03:05:49.200Z,6.20
2023-05-01T03:08:16.279Z,5.25
2023-05-01T03:10:43.434Z,5.22
2023-05-01T03:13:11.580Z,5.85
2023-05-01T03:15:39.528Z,5.00
2023-05-01T03:18:07.145Z,5.53
2023-05-01T03:20:34.376Z,5.15
2023-05-01T03:23:01.793Z,5.32
2023-05-01T03:25:28.893Z,5.43
2023-05-01T03:27:55.988Z,5.70
2023-05-01T03:30:23.204Z,6.30
2023-05-01T03:32:51.983Z,6.03
2023-05-01T03:35:19.378Z,5.75
2023-05-01T03:37:46.501Z,5.65
2023-05-01T03:40:14.600Z,5.78
2023-05-01T03:42:41.849Z,5.95
2023-05-01T03:45:09.772Z,6.22
2023-05-01T03:47:36.941Z,5.57
2023-05-01T03:50:04.835Z,6.07
2023-05-01T03:52:31.956Z,5.93
2023-05-01T03:54:59.078Z,5.35
2023-05-01T03:57:27.118Z,5.78
2023-05-01T03:59:55.003Z,5.47
2023-05-01T04:02:22.593Z,6.03
2023-05-01T04:04:49.934Z,5.82
2023-05-01T04:07:17.129Z,5.57
2023-05-01T04:09:44.276Z,5.57
2023-05-01T04:12:11.373Z,6.25
2023-05-01T04:14:38.453Z,5.95
2023-05-01T04:17:05.535Z,5.75
2023-05-01T04:19:32.602Z,5.43
2023-05-01T04:21:59.710Z,6.10
2023-05-01T04:24:27.103Z,6.10
2023-05-01T04:26:54.268Z,5.78
2023-05-01T04:29:21.626Z,5.68
2023-05-01T04:31:48.831Z,7.00
2023-05-01T04:34:16.348Z,6.00
2023-05-01T04:36:43.465Z,5.75
2023-05-01T04:39:10.604Z,6.30
2023-05-01T04:41:37.681Z,6.72
2023-05-01T04:44:05.124Z,6.18
2023-05-01T04:46:32.273Z,6.45
2023-05-01T04:48:59.380Z,5.75
2023-05-01T04:51:28.091Z,6.72
2023-05-01T04:53:55.774Z,6.47
2023-05-01T04:56:23.011Z,6.35
2023-05-01T04:58:50.069Z,6.65
2023-05-01T05:01:17.288Z,6.85
2023-05-01T05:03:45.479Z,7.50
2023-05-01T05:06:14.404Z,6.63
2023-05-01T05:08:41.521Z,6.97
2023-05-01T05:11:08.596Z,6.63
2023-05-01T05:13:35.772Z,6.75
2023-05-01T05:16:02.902Z,6.18
2023-05-01T05:18:29.979Z,6.40
2023-05-01T05:20:57.059Z,6.10
2023-05-01T05:23:24.259Z,6.43
2023-05-01T05:25:51.380Z,6.15
2023-05-01T05:28:18.548Z,6.20
2023-05-01T05:30:46.846Z,6.20
2023-05-01T05:33:13.964Z,6.82
2023-05-01T05:35:41.187Z,5.93
2023-05-01T05:38:08.379Z,6.25
2023-05-01T05:40:35.440Z,6.28
2023-05-01T05:43:02.586Z,6.35
2023-05-01T05:45:29.701Z,6.35
2023-05-01T05:47:57.072Z,6.28
2023-05-01T05:50:24.281Z,6.50
2023-05-01T05:52:51.676Z,6.10
2023-05-01T05:55:18.749Z,6.47
2023-05-01T05:57:45.904Z,6.32
2023-05-01T06:00:14.210Z,5.90
2023-05-01T06:02:41.470Z,6.70
2023-05-01T06:05:10.592Z,6.15
2023-05-01T06:07:40.704Z,5.68
2023-05-01T06:10:08.467Z,6.90
2023-05-01T06:12:37.907Z,5.43
2023-05-01T06:15:09.087Z,5.35
2023-05-01T06:17:37.597Z,5.80
2023-05-01T06:20:06.320Z,5.18
2023-05-01T06:22:33.450Z,5.88
2023-05-01T06:25:00.872Z,6.53
2023-05-01T06:27:28.056Z,5.60
2023-05-01T06:29:55.371Z,5.82
2023-05-01T06:32:23.433Z,6.05
2023-05-01T06:34:50.523Z,6.70
2023-05-01T06:37:17.561Z,5.38
2023-05-01T06:39:44.647Z,6.22
2023-05-01T06:42:16.027Z,7.03
2023-05-01T06:44:43.777Z,5.63
2023-05-01T06:47:10.896Z,5.28
2023-05-01T06:49:38.021Z,5.63
2023-05-01T06:52:05.356Z,6.53
2023-05-01T06:54:32.411Z,5.97
2023-05-01T06:56:59.447Z,5.65
2023-05-01T06:59:26.522Z,6.05
2023-05-01T07:01:53.790Z,6.28
2023-05-01T07:04:21.206Z,5.43
2023-05-01T07:06:48.419Z,5.32
2023-05-01T07:09:15.814Z,5.32
2023-05-01T07:11:42.885Z,5.22
2023-05-01T07:14:09.937Z,4.43
2023-05-01T07:16:37.084Z,4.95
2023-05-01T07:19:04.189Z,4.57
2023-05-01T07:21:32.355Z,5.85
2023-05-01T07:23:59.469Z,5.97
2023-05-01T07:26:27.478Z,5.05
2023-05-01T07:28:54.708Z,5.15
2023-05-01T07:31:22.870Z,6.22
2023-05-01T07:33:51.043Z,4.93
2023-05-01T07:36:20.477Z,4.97
2023-05-01T07:38:51.025Z,5.07
2023-05-01T07:41:18.093Z,5.18
2023-05-01T07:43:45.177Z,5.60
2023-05-01T07:46:12.785Z,5.65
2023-05-01T07:48:40.209Z,5.30
2023-05-01T07:51:07.381Z,5.40
2023-05-01T07:53:34.796Z,5.70
2023-05-01T07:56:09.768Z,5.95
2023-05-01T07:58:37.615Z,5.28
2023-05-01T08:01:06.189Z,6.15
2023-05-01T08:03:33.538Z,6.50
2023-05-01T08:06:00.951Z,5.63
2023-05-01T08:08:28.131Z,6.00
2023-05-01T08:10:55.258Z,6.32
2023-05-01T08:13:22.454Z,6.82
2023-05-01T08:15:49.988Z,5.75
2023-05-01T08:18:21.110Z,6.55
2023-05-01T08:20:48.820Z,5.90
2023-05-01T08:23:17.513Z,5.88
2023-05-01T08:25:50.889Z,6.15
2023-05-01T08:28:20.857Z,5.80
2023-05-01T08:30:49.350Z,6.57
2023-05-01T08:33:16.631Z,5.68
2023-05-01T08:35:43.876Z,5.82
2023-05-01T08:38:12.047Z,5.90
2023-05-01T08:40:41.116Z,5.97
2023-05-01T08:43:08.323Z,6.15
2023-05-01T08:45:38.376Z,5.57
2023-05-01T08:48:07.342Z,5.70
2023-05-01T08:50:36.955Z,5.47
2023-05-01T08:53:08.634Z,5.18
2023-05-01T08:55:36.674Z,4.63
2023-05-01T08:58:09.305Z,4.65
2023-05-01T09:00:37.138Z,4.57
2023-05-01T09:03:05.641Z,4.65
2023-05-01T09:05:34.123Z,5.30
2023-05-01T09:08:01.456Z,5.00
2023-05-01T09:10:31.093Z,4.03
2023-05-01T09:13:07.204Z,3.70
2023-05-01T09:15:34.313Z,4.05
2023-05-01T09:18:03.858Z,3.25
2023-05-01T09:20:32.572Z,3.70
2023-05-01T09:22:59.946Z,3.00
2023-05-01T09:25:27.189Z,3.00
2023-05-01T09:27:56.975Z,3.17
2023-05-01T09:30:39.980Z,3.78
2023-05-01T09:33:12.940Z,3.55
2023-05-01T09:35:58.635Z,3.70
2023-05-01T09:38:27.861Z,3.50
2023-05-01T09:41:04.123Z,4.40
2023-05-01T09:43:31.904Z,3.75
2023-05-01T09:46:09.804Z,3.90
2023-05-01T09:48:38.208Z,4.13
2023-05-01T09:51:31.267Z,4.13
2023-05-01T09:54:04.514Z,3.80
2023-05-01T09:56:34.003Z,3.67
2023-05-01T09:59:20.277Z,3.70
2023-05-01T10:01:50.284Z,4.25
2023-05-01T10:04:18.236Z,3.70
2023-05-01T10:06:45.527Z,3.88
2023-05-01T10:09:26.460Z,3.28
2023-05-01T10:11:57.568Z,3.70
2023-05-01T10:14:27.033Z,4.07
2023-05-01T10:16:54.680Z,4.07
2023-05-01T10:19:22.025Z,3.53
2023-05-01T10:21:49.957Z,4.10
2023-05-01T10:24:18.425Z,3.95
2023-05-01T10:26:49.098Z,4.00
2023-05-01T10:29:16.405Z,3.33
2023-05-01T10:31:43.556Z,4.05
2023-05-01T10:34:16.808Z,3.85
2023-05-01T10:37:02.876Z,3.63
2023-05-01T10:42:03.828Z,4.35
2023-05-01T10:44:32.001Z,3.60
2023-05-01T10:46:59.327Z,4.35
2023-05-01T10:49:46.421Z,4.75
2023-05-01T10:52:14.173Z,4.07
2023-05-01T10:54:41.282Z,3.95
2023-05-01T10:57:08.385Z,3.85
2023-05-01T11:00:00.420Z,3.88
2023-05-01T11:02:27.597Z,3.70
2023-05-01T11:04:56.395Z,2.78
2023-05-01T11:07:24.176Z,3.95
2023-05-01T11:09:58.847Z,3.22
2023-05-01T11:12:51.984Z,3.40
2023-05-01T11:15:33.851Z,3.40
2023-05-01T11:18:03.983Z,3.45
2023-05-01T11:20:37.277Z,3.63
2023-05-01T11:23:04.477Z,3.40
2023-05-01T11:25:33.170Z,2.80
2023-05-01T11:28:03.304Z,2.80
2023-05-01T11:30:40.649Z,2.67
2023-05-01T11:33:10.580Z,2.97
2023-05-01T11:35:38.711Z,3.60
2023-05-01T11:38:06.152Z,3.40
2023-05-01T11:40:35.035Z,2.60
2023-05-01T11:43:07.483Z,2.67
2023-05-01T11:45:36.891Z,2.80
2023-05-01T11:48:05.463Z,2.90
2023-05-01T11:50:37.923Z,2.83
2023-05-01T11:53:14.406Z,2.92
2023-05-01T11:55:42.148Z,2.60
2023-05-01T11:58:09.630Z,2.35
2023-05-01T12:00:42.765Z,2.35
2023-05-01T12:03:14.911Z,2.40
2023-05-01T12:05:44.813Z,2.22
2023-05-01T12:08:22.233Z,2.20
2023-05-01T12:10:58.352Z,2.38
2023-05-01T12:13:27.065Z,2.15
2023-05-01T12:15:55.778Z,2.13
2023-05-01T12:18:23.578Z,2.10
2023-05-01T12:20:54.611Z,1.90
2023-05-01T12:23:34.678Z,1.92
2023-05-01T12:26:03.437Z,1.60
2023-05-01T12:28:31.468Z,1.92
2023-05-01T12:31:05.506Z,2.10
2023-05-01T12:33:33.330Z,2.05
2023-05-01T12:36:12.748Z,2.00
2023-05-01T12:38:39.909Z,2.33
2023-05-01T12:41:09.467Z,2.30
2023-05-01T12:43:38.359Z,2.10
2023-05-01T12:46:06.754Z,2.00
2023-05-01T12:48:39.134Z,2.80
2023-05-01T12:51:07.760Z,1.85
2023-05-01T12:53:35.448Z,1.52
2023-05-01T12:56:03.441Z,1.50
2023-05-01T12:58:37.896Z,2.25
2023-05-01T13:01:06.388Z,2.00
2023-05-01T13:03:37.672Z,2.10
2023-05-01T13:06:06.637Z,1.90
2023-05-01T13:08:38.381Z,2.00
2023-05-01T13:11:16.813Z,1.60
2023-05-01T13:13:46.073Z,1.83
2023-05-01T13:16:16.456Z,1.80
2023-05-01T13:18:45.293Z,2.55
2023-05-01T13:21:16.058Z,1.90
2023-05-01T13:23:59.416Z,1.88
2023-05-01T13:26:32.986Z,1.70
2023-05-01T13:29:03.237Z,1.48
2023-05-01T13:31:31.216Z,1.77
2023-05-01T13:33:59.818Z,1.75
2023-05-01T13:36:34.885Z,1.70
2023-05-01T13:39:02.268Z,2.08
2023-05-01T13:41:30.570Z,1.90
2023-05-01T13:43:57.956Z,1.90
2023-05-01T13:46:28.712Z,1.92
2023-05-01T13:48:57.127Z,2.00
2023-05-01T13:51:27.206Z,1.98
2023-05-01T13:53:56.580Z,1.60
2023-05-01T13:56:23.696Z,1.80
2023-05-01T13:58:51.021Z,1.83
2023-05-01T14:01:21.377Z,1.33
2023-05-01T14:03:49.887Z,1.95
2023-05-01T14:06:19.530Z,1.85
2023-05-01T14:08:48.499Z,1.70
2023-05-01T14:11:16.224Z,1.38
2023-05-01T14:13:47.074Z,1.50
2023-05-01T14:16:26.569Z,1.58
2023-05-01T14:18:57.026Z,1.65
2023-05-01T14:21:28.093Z,1.50
2023-05-01T14:24:00.398Z,1.75
2023-05-01T14:26:27.491Z,1.77
2023-05-01T14:28:54.666Z,2.00
2023-05-01T14:31:21.837Z,1.80
2023-05-01T14:34:02.950Z,1.80
2023-05-01T14:36:34.028Z,1.58
2023-05-01T14:39:03.899Z,1.48
2023-05-01T14:41:32.131Z,1.80
2023-05-01T14:43:59.826Z,1.60
2023-05-01T14:46:36.359Z,1.67
2023-05-01T14:49:03.443Z,1.75
2023-05-01T14:51:32.310Z,1.88
2023-05-01T14:54:00.245Z,1.80
2023-05-01T14:56:27.569Z,1.45
2023-05-01T14:58:54.699Z,1.60
2023-05-01T15:01:22.068Z,1.40
2023-05-01T15:03:49.613Z,1.50
2023-05-01T15:06:17.330Z,1.50
2023-05-01T15:08:44.573Z,1.38
2023-05-01T15:11:14.354Z,1.65
2023-05-01T15:13:42.789Z,1.60
2023-05-01T15:16:11.023Z,1.40
2023-05-01T15:18:38.863Z,1.30
2023-05-01T15:21:06.121Z,1.80
2023-05-01T15:23:33.272Z,1.65
2023-05-01T15:26:01.574Z,1.20
2023-05-01T15:28:29.790Z,1.63
2023-05-01T15:30:56.868Z,2.03
2023-05-01T15:33:24.174Z,1.80
2023-05-01T15:35:52.688Z,1.58
2023-05-01T15:38:22.706Z,1.40
2023-05-01T15:40:52.600Z,1.42
2023-05-01T15:43:19.689Z,1.50
2023-05-01T15:45:46.861Z,1.77
2023-05-01T15:48:14.090Z,1.38
2023-05-01T15:50:41.306Z,1.50
2023-05-01T15:53:08.936Z,1.45
2023-05-01T15:55:36.801Z,1.50
2023-05-01T15:58:04.185Z,1.52
2023-05-01T16:00:32.816Z,1.50
2023-05-01T16:03:04.363Z,1.70
2023-05-01T16:05:32.348Z,1.27
2023-05-01T16:08:01.383Z,1.80
2023-05-01T16:10:28.574Z,1.48
2023-05-01T16:12:55.693Z,1.63
2023-05-01T16:15:23.102Z,1.73
2023-05-01T16:17:51.541Z,1.27
2023-05-01T16:20:19.076Z,1.80
2023-05-01T16:22:46.249Z,1.75
2023-05-01T16:25:13.899Z,1.70
2023-05-01T16:27:44.633Z,1.60
2023-05-01T16:30:14.685Z,1.70
2023-05-01T16:32:43.678Z,2.05
2023-05-01T16:35:16.860Z,1.40
2023-05-01T16:37:44.223Z,1.35
2023-05-01T16:40:17.540Z,1.55
2023-05-01T16:42:54.193Z,1.90
2023-05-01T16:45:21.826Z,1.60
2023-05-01T16:47:49.169Z,1.63
2023-05-01T16:50:17.166Z,1.88
2023-05-01T16:52:44.444Z,1.70
2023-05-01T16:55:11.973Z,1.80
2023-05-01T16:57:40.129Z,1.60
2023-05-01T17:00:09.469Z,1.92
2023-05-01T17:02:37.903Z,2.25
2023-05-01T17:05:06.209Z,1.83
2023-05-01T17:07:33.389Z,1.92
2023-05-01T17:10:00.906Z,1.70
2023-05-01T17:12:29.722Z,1.50
2023-05-01T17:14:57.034Z,1.60
2023-05-01T17:17:25.185Z,1.75
2023-05-01T17:19:52.802Z,1.92
2023-05-01T17:22:20.142Z,1.95
2023-05-01T17:24:47.807Z,1.88
2023-05-01T17:27:16.010Z,1.88
2023-05-01T17:29:43.871Z,2.00
2023-05-01T17:32:12.249Z,2.10
2023-05-01T17:34:40.698Z,2.20
2023-05-01T17:37:09.072Z,2.28
2023-05-01T17:39:36.554Z,1.83
2023-05-01T17:42:04.605Z,1.90
2023-05-01T17:44:33.192Z,1.70
2023-05-01T17:47:01.312Z,1.65
2023-05-01T17:49:28.773Z,2.20
2023-05-01T17:51:56.335Z,1.77
2023-05-01T17:54:23.982Z,1.95
2023-05-01T17:56:51.131Z,1.67
2023-05-01T17:59:18.327Z,1.73
2023-05-01T18:01:45.740Z,1.80
2023-05-01T18:04:13.126Z,1.90
2023-05-01T18:06:41.949Z,1.63
2023-05-01T18:09:10.605Z,1.90
2023-05-01T18:11:37.651Z,1.92
2023-05-01T18:14:06.328Z,2.13
2023-05-01T18:16:35.720Z,2.00
2023-05-01T18:19:03.177Z,1.70
2023-05-01T18:21:30.980Z,1.73
2023-05-01T18:23:58.441Z,1.85
2023-05-01T18:26:28.013Z,2.05
2023-05-01T18:28:56.023Z,1.98
2023-05-01T18:31:23.736Z,2.15
2023-05-01T18:33:52.097Z,1.67
2023-05-01T18:36:19.682Z,2.10
2023-05-01T18:38:55.331Z,1.88
2023-05-01T18:41:23.288Z,1.83
2023-05-01T18:43:57.830Z,2.03
2023-05-01T18:46:26.850Z,2.33
2023-05-01T18:48:55.278Z,2.20
2023-05-01T18:51:23.497Z,1.80
2023-05-01T18:53:51.160Z,2.20
2023-05-01T18:56:19.054Z,2.20
2023-05-01T18:58:46.689Z,1.98
2023-05-01T19:01:14.202Z,2.40
2023-05-01T19:03:43.818Z,2.40
2023-05-01T19:06:11.461Z,2.05
2023-05-01T19:08:39.929Z,1.83
2023-05-01T19:11:07.303Z,2.25
2023-05-01T19:13:35.640Z,2.00
2023-05-01T19:16:05.830Z,1.83
2023-05-01T19:18:34.092Z,2.25
2023-05-01T19:21:02.061Z,2.20
2023-05-01T19:23:35.947Z,2.65
2023-05-01T19:26:06.728Z,2.45
2023-05-01T19:28:34.652Z,2.60
2023-05-01T19:31:02.439Z,2.30
2023-05-01T19:33:29.908Z,2.28
2023-05-01T19:35:57.760Z,2.25
2023-05-01T19:38:25.490Z,2.50
2023-05-01T19:40:53.387Z,2.40
2023-05-01T19:43:21.553Z,2.25
2023-05-01T19:45:49.398Z,2.20
2023-05-01T19:48:19.392Z,2.67
2023-05-01T19:50:51.650Z,2.45
2023-05-01T19:53:20.091Z,2.28
2023-05-01T19:55:48.572Z,2.20
2023-05-01T19:58:19.354Z,1.92
2023-05-01T20:00:47.040Z,2.50
2023-05-01T20:03:16.089Z,2.10
2023-05-01T20:05:44.354Z,2.25
2023-05-01T20:08:13.209Z,1.98
2023-05-01T20:10:41.307Z,2.33
2023-05-01T20:13:10.942Z,2.08
2023-05-01T20:15:39.623Z,2.60
2023-05-01T20:18:07.137Z,2.28
2023-05-01T20:20:35.411Z,2.50
2023-05-01T20:23:18.242Z,2.70
2023-05-01T20:25:49.004Z,2.70
2023-05-01T20:28:25.195Z,2.38
2023-05-01T20:30:52.835Z,2.35
2023-05-01T20:33:20.574Z,2.20
2023-05-01T20:35:48.200Z,2.38
2023-05-01T20:38:15.389Z,2.70
2023-05-01T20:40:42.594Z,2.00
2023-05-01T20:43:09.698Z,2.40
2023-05-01T20:45:37.026Z,2.25
2023-05-01T20:48:04.302Z,1.95
2023-05-01T20:50:31.822Z,2.50
2023-05-01T20:52:58.897Z,2.50
2023-05-01T20:55:26.598Z,2.67
2023-05-01T20:57:53.788Z,2.50
2023-05-01T21:00:20.972Z,2.30
2023-05-01T21:02:48.129Z,2.67
2023-05-01T21:05:16.344Z,2.40
2023-05-01T21:07:43.746Z,2.78
2023-05-01T21:10:12.053Z,2.85
2023-05-01T21:12:40.094Z,2.50
2023-05-01T21:15:07.951Z,3.03
2023-05-01T21:17:37.320Z,2.80
2023-05-01T21:20:10.870Z,2.55
2023-05-01T21:22:41.941Z,2.80
2023-05-01T21:25:09.356Z,2.22
2023-05-01T21:27:43.420Z,2.97
2023-05-01T21:30:17.307Z,2.85
2023-05-01T21:32:44.494Z,2.42
2023-05-01T21:35:15.999Z,2.78
2023-05-01T21:37:44.983Z,2.60
2023-05-01T21:40:14.700Z,3.08
2023-05-01T21:42:43.115Z,2.90
2023-05-01T21:45:13.739Z,3.22
2023-05-01T21:47:47.833Z,3.40
2023-05-01T21:50:20.666Z,2.95
2023-05-01T21:52:49.826Z,3.03
2023-05-01T21:55:25.031Z,2.88
2023-05-01T21:57:53.355Z,3.28
2023-05-01T22:00:21.515Z,2.85
2023-05-01T22:02:51.005Z,2.40
2023-05-01T22:05:22.567Z,3.00
2023-05-01T22:07:54.240Z,3.03
2023-05-01T22:10:21.543Z,2.85
2023-05-01T22:12:51.832Z,3.10
2023-05-01T22:15:19.337Z,3.30
2023-05-01T22:17:46.514Z,3.35
2023-05-01T22:20:13.679Z,3.22
2023-05-01T22:22:42.968Z,3.58
2023-05-01T22:25:11.985Z,3.58
2023-05-01T22:27:39.217Z,3.28
2023-05-01T22:30:07.387Z,3.25
2023-05-01T22:32:34.532Z,3.40
2023-05-01T22:35:01.764Z,3.28
2023-05-01T22:37:28.871Z,3.95
2023-05-01T22:39:56.207Z,3.58
2023-05-01T22:42:23.319Z,3.35
2023-05-01T22:44:50.471Z,3.38
2023-05-01T22:47:17.820Z,3.80
2023-05-01T22:49:44.981Z,3.30
2023-05-01T22:52:12.059Z,3.15
2023-05-01T22:54:39.086Z,3.83
2023-05-01T22:57:06.182Z,3.80
2023-05-01T22:59:33.342Z,3.58
2023-05-01T23:02:04.540Z,3.40
2023-05-01T23:04:32.408Z,3.50
2023-05-01T23:06:59.665Z,3.70
2023-05-01T23:09:26.858Z,3.70
2023-05-01T23:11:54.171Z,3.65
2023-05-01T23:14:21.323Z,3.55
2023-05-01T23:16:48.463Z,3.85
2023-05-01T23:19:21.444Z,3.67
2023-05-01T23:21:50.007Z,3.67
2023-05-01T23:24:20.288Z,3.63
2023-05-01T23:26:47.716Z,3.70
2023-05-01T23:29:16.080Z,4.30
2023-05-01T23:31:47.697Z,3.92
2023-05-01T23:34:19.854Z,4.25
2023-05-01T23:36:47.725Z,3.70
2023-05-01T23:39:16.102Z,3.90
2023-05-01T23:41:43.533Z,3.33
2023-05-01T23:44:11.258Z,3.47
2023-05-01T23:46:38.533Z,4.15
2023-05-01T23:49:06.484Z,3.72
2023-05-01T23:51:33.790Z,3.97
2023-05-01T23:54:00.906Z,4.22
2023-05-01T23:56:28.017Z,3.90
2023-05-01T23:58:55.081Z,3.80
